createdAt,value
2022-12-18T00:01:34.947Z,97187.47
2022-12-18T00:04:06.669Z,97188.63
2022-12-18T00:06:33.826Z,97185.38
2022-12-18T00:09:01.826Z,97195.25
2022-12-18T00:11:30.537Z,97183.88
2022-12-18T00:13:58.710Z,97171.97
2022-12-18T00:16:27.659Z,97187.47
2022-12-18T00:18:56.602Z,97178.94
2022-12-18T00:21:23.363Z,97184.75
2022-12-18T00:23:53.031Z,97182.28
2022-12-18T00:26:31.283Z,97192.06
2022-12-18T00:29:08.022Z,97189.31
2022-12-18T00:31:35.484Z,97192.50
2022-12-18T00:34:02.585Z,97183.97
2022-12-18T00:36:32.471Z,97192.34
2022-12-18T00:39:00.342Z,97192.06
2022-12-18T00:41:46.517Z,97186.44
2022-12-18T00:44:15.406Z,97189.63
2022-12-18T00:46:43.551Z,97196.31
2022-12-18T00:49:10.797Z,97211.59
2022-12-18T00:51:37.536Z,97212.81
2022-12-18T00:54:03.940Z,97206.75
2022-12-18T00:56:30.815Z,97208.66
2022-12-18T00:58:57.114Z,97215.41
2022-12-18T01:01:23.832Z,97220.72
2022-12-18T01:03:50.804Z,97209.66
2022-12-18T01:06:17.736Z,97202.28
2022-12-18T01:08:44.793Z,97203.28
2022-12-18T01:11:14.350Z,97224.56
2022-12-18T01:13:41.785Z,97219.78
2022-12-18T01:16:09.681Z,97229.31
2022-12-18T01:18:37.047Z,97230.28
2022-12-18T01:21:08.569Z,97229.81
2022-12-18T01:23:35.145Z,97228.16
2022-12-18T01:26:09.759Z,97213.56
2022-12-18T01:28:36.750Z,97223.59
2022-12-18T01:31:15.778Z,97210.41
2022-12-18T01:33:42.269Z,97218.69
2022-12-18T01:36:10.217Z,97219.50
2022-12-18T01:38:36.642Z,97212.41
2022-12-18T01:41:03.557Z,97233.16
2022-12-18T01:43:59.154Z,97239.78
2022-12-18T01:46:27.541Z,97240.56
2022-12-18T01:49:03.487Z,97236.50
2022-12-18T01:51:31.529Z,97224.94
2022-12-18T01:53:58.851Z,97226.06
2022-12-18T01:56:25.533Z,97226.47
2022-12-18T01:59:01.938Z,97231.41
2022-12-18T02:01:30.819Z,97240.31
2022-12-18T02:03:57.445Z,97236.53
2022-12-18T02:06:44.442Z,97233.09
2022-12-18T02:09:19.165Z,97228.66
2022-12-18T02:12:19.226Z,97234.25
2022-12-18T02:14:56.100Z,97232.19
2022-12-18T02:17:30.433Z,97220.78
2022-12-18T02:20:29.116Z,97222.78
2022-12-18T02:23:19.789Z,97219.31
2022-12-18T02:26:07.889Z,97222.50
2022-12-18T02:28:42.522Z,97217.94
2022-12-18T02:31:12.601Z,97225.84
2022-12-18T02:33:41.787Z,97216.59
2022-12-18T02:36:10.646Z,97210.31
2022-12-18T02:38:37.721Z,97215.25
2022-12-18T02:41:06.081Z,97220.91
2022-12-18T02:43:32.651Z,97225.09
2022-12-18T02:46:01.451Z,97227.44
2022-12-18T02:48:34.811Z,97232.78
2022-12-18T02:51:13.986Z,97232.97
2022-12-18T02:53:56.326Z,97234.91
2022-12-18T02:56:31.534Z,97229.47
2022-12-18T02:59:07.556Z,97230.75
2022-12-18T03:01:47.839Z,97242.22
2022-12-18T03:04:17.964Z,97237.00
2022-12-18T03:06:49.500Z,97228.16
2022-12-18T03:09:22.443Z,97232.38
2022-12-18T03:12:15.674Z,97220.56
2022-12-18T03:14:44.926Z,97235.13
2022-12-18T03:17:15.664Z,97242.13
2022-12-18T03:19:44.848Z,97243.28
2022-12-18T03:22:11.772Z,97243.28
2022-12-18T03:24:40.426Z,97245.94
2022-12-18T03:27:12.369Z,97241.91
2022-12-18T03:29:43.558Z,97248.59
2022-12-18T03:32:18.830Z,97254.97
2022-12-18T03:34:49.090Z,97254.03
2022-12-18T03:37:15.622Z,97245.84
2022-12-18T03:39:42.633Z,97246.38
2022-12-18T03:42:28.032Z,97243.75
2022-12-18T03:44:54.653Z,97243.81
2022-12-18T03:47:43.743Z,97235.28
2022-12-18T03:50:24.336Z,97238.00
2022-12-18T03:52:58.563Z,97233.47
2022-12-18T03:55:27.263Z,97231.00
2022-12-18T03:57:55.163Z,97230.28
2022-12-18T04:00:22.038Z,97231.06
2022-12-18T04:02:52.991Z,97233.66
2022-12-18T04:05:21.509Z,97232.22
2022-12-18T04:07:50.335Z,97233.94
2022-12-18T04:10:17.926Z,97228.69
2022-12-18T04:12:44.241Z,97235.53
2022-12-18T04:15:12.570Z,97259.88
2022-12-18T04:17:42.577Z,97253.78
2022-12-18T04:20:09.451Z,97249.47
2022-12-18T04:22:36.426Z,97254.25
2022-12-18T04:25:03.156Z,97254.13
2022-12-18T04:27:30.230Z,97245.88
2022-12-18T04:29:56.546Z,97251.44
2022-12-18T04:32:23.253Z,97252.75
2022-12-18T04:34:49.652Z,97250.88
2022-12-18T04:37:16.011Z,97252.06
2022-12-18T04:39:42.660Z,97256.53
2022-12-18T04:42:08.989Z,97250.03
2022-12-18T04:44:35.706Z,97259.13
2022-12-18T04:47:02.633Z,97263.69
2022-12-18T04:49:28.971Z,97270.59
2022-12-18T04:51:55.350Z,97270.16
2022-12-18T04:54:22.545Z,97265.00
2022-12-18T04:56:48.892Z,97270.59
2022-12-18T04:59:15.213Z,97264.56
2022-12-18T05:01:42.154Z,97264.88
2022-12-18T05:04:08.758Z,97266.88
2022-12-18T05:06:35.139Z,97268.56
2022-12-18T05:09:02.013Z,97274.03
2022-12-18T05:11:28.338Z,97270.09
2022-12-18T05:13:57.558Z,97271.47
2022-12-18T05:16:24.394Z,97265.41
2022-12-18T05:18:50.822Z,97266.56
2022-12-18T05:21:17.145Z,97269.25
2022-12-18T05:23:44.164Z,97273.75
2022-12-18T05:26:17.738Z,97279.06
2022-12-18T05:28:44.887Z,97282.66
2022-12-18T05:31:11.422Z,97292.50
2022-12-18T05:33:38.473Z,97282.91
2022-12-18T05:36:08.171Z,97279.22
2022-12-18T05:38:36.719Z,97291.56
2022-12-18T05:41:04.580Z,97290.25
2022-12-18T05:43:30.927Z,97284.09
2022-12-18T05:45:58.355Z,97289.75
2022-12-18T05:48:24.734Z,97291.34
2022-12-18T05:50:51.684Z,97290.50
2022-12-18T05:53:20.250Z,97288.44
2022-12-18T05:55:47.703Z,97295.44
2022-12-18T05:58:15.621Z,97281.75
2022-12-18T06:00:44.875Z,97281.75
2022-12-18T06:03:12.804Z,97284.25
2022-12-18T06:05:42.086Z,97275.09
2022-12-18T06:08:08.718Z,97275.25
2022-12-18T06:10:35.245Z,97287.19
2022-12-18T06:13:02.349Z,97290.75
2022-12-18T06:15:28.817Z,97296.41
2022-12-18T06:17:55.182Z,97300.44
2022-12-18T06:20:22.266Z,97300.75
2022-12-18T06:22:48.766Z,97289.84
2022-12-18T06:25:16.338Z,97297.75
2022-12-18T06:27:43.213Z,97302.59
2022-12-18T06:30:11.219Z,97301.13
2022-12-18T06:32:37.565Z,97306.78
2022-12-18T06:35:05.117Z,97310.53
2022-12-18T06:37:32.372Z,97307.94
2022-12-18T06:39:59.093Z,97309.25
2022-12-18T06:42:25.996Z,97309.19
2022-12-18T06:44:52.837Z,97312.44
2022-12-18T06:47:19.526Z,97311.13
2022-12-18T06:49:46.421Z,97309.94
2022-12-18T06:52:12.870Z,97317.31
2022-12-18T06:54:39.222Z,97309.94
2022-12-18T06:57:05.877Z,97312.44
2022-12-18T06:59:32.282Z,97320.63
2022-12-18T07:01:58.686Z,97313.97
2022-12-18T07:04:32.744Z,97324.91
2022-12-18T07:06:59.091Z,97326.69
2022-12-18T07:09:26.193Z,97328.97
2022-12-18T07:11:53.594Z,97324.97
2022-12-18T07:14:20.108Z,97316.28
2022-12-18T07:16:46.455Z,97315.44
2022-12-18T07:19:13.366Z,97331.56
2022-12-18T07:21:39.689Z,97332.72
2022-12-18T07:24:06.787Z,97342.91
2022-12-18T07:26:33.580Z,97340.47
2022-12-18T07:28:59.940Z,97358.00
2022-12-18T07:31:26.943Z,97350.50
2022-12-18T07:33:54.057Z,97366.50
2022-12-18T07:36:20.906Z,97369.50
2022-12-18T07:38:51.080Z,97364.97
2022-12-18T07:41:18.080Z,97371.34
2022-12-18T07:43:44.815Z,97380.50
2022-12-18T07:46:13.639Z,97375.03
2022-12-18T07:48:41.724Z,97380.69
2022-12-18T07:51:09.092Z,97382.44
2022-12-18T07:53:37.510Z,97388.53
2022-12-18T07:58:54.515Z,97385.66
2022-12-18T08:01:21.368Z,97385.28
2022-12-18T08:03:48.083Z,97386.91
2022-12-18T08:06:14.621Z,97385.75
2022-12-18T08:08:42.730Z,97378.69
2022-12-18T08:11:09.094Z,97389.03
2022-12-18T08:13:35.434Z,97393.63
2022-12-18T08:16:08.175Z,97380.19
2022-12-18T08:18:36.800Z,97386.59
2022-12-18T08:21:31.759Z,97386.69
2022-12-18T08:24:00.377Z,97379.31
2022-12-18T08:26:29.925Z,97376.00
2022-12-18T08:28:58.052Z,97366.41
2022-12-18T08:31:26.509Z,97376.84
2022-12-18T08:33:54.510Z,97374.00
2022-12-18T08:36:23.231Z,97374.63
2022-12-18T08:38:51.179Z,97368.31
2022-12-18T08:41:18.999Z,97363.88
2022-12-18T08:44:04.376Z,97363.53
2022-12-18T08:46:38.133Z,97362.84
2022-12-18T08:49:05.301Z,97371.06
2022-12-18T08:51:31.823Z,97375.38
2022-12-18T08:53:58.623Z,97367.72
2022-12-18T08:56:25.331Z,97369.69
2022-12-18T08:58:54.142Z,97369.63
2022-12-18T09:01:21.212Z,97366.84
2022-12-18T09:03:48.099Z,97371.41
2022-12-18T09:06:17.002Z,97380.91
2022-12-18T09:08:44.783Z,97380.88
2022-12-18T09:11:21.912Z,97383.56
2022-12-18T09:13:48.392Z,97381.63
2022-12-18T09:16:16.231Z,97369.44
2022-12-18T09:18:43.204Z,97375.75
2022-12-18T09:21:14.881Z,97365.25
2022-12-18T09:23:42.219Z,97372.66
2022-12-18T09:26:08.769Z,97373.75
2022-12-18T09:28:35.309Z,97364.91
2022-12-18T09:31:07.927Z,97373.56
2022-12-18T09:33:38.049Z,97375.16
2022-12-18T09:36:08.406Z,97370.34
2022-12-18T09:38:35.732Z,97376.72
2022-12-18T09:41:24.112Z,97364.16
2022-12-18T09:43:54.886Z,97358.84
2022-12-18T09:46:35.860Z,97352.09
2022-12-18T09:49:06.854Z,97359.88
2022-12-18T09:51:39.789Z,97358.75
2022-12-18T09:54:13.370Z,97362.66
2022-12-18T09:56:43.715Z,97363.59
2022-12-18T09:59:20.464Z,97365.16
2022-12-18T10:01:47.504Z,97360.66
2022-12-18T10:04:13.985Z,97354.88
2022-12-18T10:07:07.274Z,97364.59
2022-12-18T10:09:39.467Z,97360.78
2022-12-18T10:12:26.498Z,97362.56
2022-12-18T10:15:15.739Z,97373.75
2022-12-18T10:18:02.594Z,97363.84
2022-12-18T10:20:44.728Z,97359.03
2022-12-18T10:23:27.390Z,97355.41
2022-12-18T10:26:02.947Z,97348.84
2022-12-18T10:28:32.125Z,97338.38
2022-12-18T10:30:59.415Z,97349.97
2022-12-18T10:33:30.466Z,97346.94
2022-12-18T10:35:57.221Z,97345.81
2022-12-18T10:38:32.578Z,97350.31
2022-12-18T10:41:10.460Z,97346.69
2022-12-18T10:43:40.952Z,97348.59
2022-12-18T10:46:10.152Z,97348.41
2022-12-18T10:48:48.915Z,97351.16
2022-12-18T10:51:37.105Z,97347.38
2022-12-18T10:54:06.290Z,97338.22
2022-12-18T10:56:37.135Z,97345.38
2022-12-18T10:59:07.319Z,97360.59
2022-12-18T11:01:49.780Z,97356.00
2022-12-18T11:04:28.322Z,97356.91
2022-12-18T11:07:04.114Z,97357.31
2022-12-18T11:09:39.394Z,97366.22
2022-12-18T11:12:17.698Z,97359.09
2022-12-18T11:14:48.578Z,97352.44
2022-12-18T11:17:36.438Z,97364.69
2022-12-18T11:20:10.902Z,97361.28
2022-12-18T11:22:39.074Z,97361.84
2022-12-18T11:25:35.793Z,97355.88
2022-12-18T11:28:05.544Z,97362.66
2022-12-18T11:30:31.994Z,97358.59
2022-12-18T11:33:11.158Z,97341.47
2022-12-18T11:35:56.514Z,97348.19
2022-12-18T11:38:24.964Z,97352.03
2022-12-18T11:41:06.558Z,97350.34
2022-12-18T11:43:39.770Z,97339.22
2022-12-18T11:46:20.168Z,97342.63
2022-12-18T11:49:07.152Z,97334.69
2022-12-18T11:51:38.761Z,97327.06
2022-12-18T11:54:15.021Z,97327.09
2022-12-18T11:56:49.667Z,97324.41
2022-12-18T11:59:28.326Z,97322.69
2022-12-18T12:02:00.318Z,97327.63
2022-12-18T12:04:40.121Z,97321.84
2022-12-18T12:07:42.909Z,97311.31
2022-12-18T12:10:35.334Z,97314.91
2022-12-18T12:13:39.688Z,97321.13
2022-12-18T12:16:27.752Z,97311.69
2022-12-18T12:19:05.849Z,97309.38
2022-12-18T12:21:55.238Z,97296.72
2022-12-18T12:24:37.213Z,97295.22
2022-12-18T12:27:12.842Z,97289.34
2022-12-18T12:30:28.826Z,97292.50
2022-12-18T12:33:14.149Z,97286.22
2022-12-18T12:35:59.630Z,97292.28
2022-12-18T12:38:33.259Z,97275.22
2022-12-18T12:41:06.162Z,97284.16
2022-12-18T12:43:50.801Z,97277.13
2022-12-18T12:46:22.364Z,97266.16
2022-12-18T12:49:00.537Z,97275.47
2022-12-18T12:51:32.878Z,97275.59
2022-12-18T12:54:02.847Z,97273.91
2022-12-18T12:56:55.322Z,97284.16
2022-12-18T12:59:37.118Z,97283.44
2022-12-18T13:02:20.794Z,97282.28
2022-12-18T13:04:52.304Z,97284.81
2022-12-18T13:07:27.984Z,97279.72
2022-12-18T13:10:19.041Z,97290.38
2022-12-18T13:13:17.298Z,97293.41
2022-12-18T13:15:46.183Z,97290.47
2022-12-18T13:18:15.361Z,97291.53
2022-12-18T13:20:55.269Z,97293.03
2022-12-18T13:23:24.718Z,97289.56
2022-12-18T13:26:12.983Z,97274.34
2022-12-18T13:28:45.909Z,97283.13
2022-12-18T13:31:31.169Z,97290.63
2022-12-18T13:34:29.521Z,97289.56
2022-12-18T13:37:18.043Z,97291.44
2022-12-18T13:39:44.556Z,97290.25
2022-12-18T13:42:33.180Z,97289.78
2022-12-18T13:45:00.399Z,97291.94
2022-12-18T13:47:39.200Z,97288.44
2022-12-18T13:50:24.605Z,97295.25
2022-12-18T13:52:51.900Z,97291.22
2022-12-18T13:55:20.480Z,97279.78
2022-12-18T13:57:47.915Z,97284.03
2022-12-18T14:00:23.520Z,97290.81
2022-12-18T14:02:51.423Z,97284.84
2022-12-18T14:05:33.079Z,97286.69
2022-12-18T14:08:12.295Z,97283.47
2022-12-18T14:10:48.505Z,97288.03
2022-12-18T14:13:31.823Z,97282.00
2022-12-18T14:16:01.782Z,97273.66
2022-12-18T14:18:46.170Z,97282.00
2022-12-18T14:21:21.567Z,97285.47
2022-12-18T14:23:47.975Z,97278.81
2022-12-18T14:26:30.208Z,97282.78
2022-12-18T14:28:58.503Z,97292.25
2022-12-18T14:31:32.972Z,97288.91
2022-12-18T14:33:59.318Z,97292.50
2022-12-18T14:36:29.305Z,97285.44
2022-12-18T14:38:58.144Z,97293.38
2022-12-18T14:41:25.724Z,97285.78
2022-12-18T14:43:54.698Z,97289.28
2022-12-18T14:46:34.258Z,97289.91
2022-12-18T14:49:05.119Z,97289.81
2022-12-18T14:51:34.633Z,97283.53
2022-12-18T14:54:04.037Z,97290.81
2022-12-18T14:56:33.096Z,97283.94
2022-12-18T14:59:05.816Z,97284.84
2022-12-18T15:01:34.830Z,97287.06
2022-12-18T15:04:02.725Z,97287.44
2022-12-18T15:06:41.290Z,97290.97
2022-12-18T15:09:24.874Z,97287.16
2022-12-18T15:11:58.529Z,97292.41
2022-12-18T15:14:31.498Z,97291.31
2022-12-18T15:17:00.045Z,97296.25
2022-12-18T15:19:40.748Z,97301.53
2022-12-18T15:22:34.719Z,97306.63
2022-12-18T15:25:02.330Z,97304.03
2022-12-18T15:27:30.816Z,97300.16
2022-12-18T15:30:09.270Z,97309.38
2022-12-18T15:32:38.041Z,97307.88
2022-12-18T15:35:11.014Z,97308.94
2022-12-18T15:37:38.358Z,97310.56
2022-12-18T15:40:07.087Z,97300.28
2022-12-18T15:42:52.283Z,97307.19
2022-12-18T15:45:19.632Z,97301.00
2022-12-18T15:47:46.390Z,97294.69
2022-12-18T15:50:12.775Z,97306.72
2022-12-18T15:52:45.209Z,97294.97
2022-12-18T15:55:32.365Z,97299.00
2022-12-18T15:57:58.960Z,97297.34
2022-12-18T16:00:26.130Z,97301.16
2022-12-18T16:02:52.710Z,97290.88
2022-12-18T16:05:21.613Z,97297.63
2022-12-18T16:07:48.663Z,97299.25
2022-12-18T16:10:15.579Z,97294.50
2022-12-18T16:12:42.910Z,97293.91
2022-12-18T16:15:14.339Z,97294.84
2022-12-18T16:17:41.809Z,97295.31
2022-12-18T16:20:19.721Z,97289.13
2022-12-18T16:22:47.237Z,97291.13
2022-12-18T16:25:21.425Z,97298.22
2022-12-18T16:27:48.799Z,97295.75
2022-12-18T16:30:18.721Z,97301.69
2022-12-18T16:32:45.131Z,97292.34
2022-12-18T16:35:13.571Z,97295.78
2022-12-18T16:37:42.052Z,97295.09
2022-12-18T16:40:11.457Z,97292.28
2022-12-18T16:42:40.100Z,97293.56
2022-12-18T16:45:08.567Z,97291.91
2022-12-18T16:47:35.361Z,97295.44
2022-12-18T16:50:02.119Z,97290.00
2022-12-18T16:52:28.975Z,97286.66
2022-12-18T16:54:55.272Z,97288.94
2022-12-18T16:57:24.679Z,97277.31
2022-12-18T16:59:52.751Z,97272.72
2022-12-18T17:02:24.672Z,97271.00
2022-12-18T17:04:55.152Z,97279.94
2022-12-18T17:07:21.645Z,97273.88
2022-12-18T17:09:48.717Z,97277.03
2022-12-18T17:12:15.150Z,97274.13
2022-12-18T17:14:41.465Z,97272.19
2022-12-18T17:17:20.754Z,97268.94
2022-12-18T17:19:48.375Z,97275.41
2022-12-18T17:22:14.748Z,97270.78
2022-12-18T17:24:41.066Z,97269.69
2022-12-18T17:27:09.106Z,97266.94
2022-12-18T17:29:35.673Z,97267.94
2022-12-18T17:32:02.043Z,97259.78
2022-12-18T17:34:29.934Z,97258.91
2022-12-18T17:36:57.127Z,97276.44
2022-12-18T17:39:23.526Z,97268.25
2022-12-18T17:41:50.938Z,97263.41
2022-12-18T17:44:17.600Z,97261.72
2022-12-18T17:46:44.580Z,97258.72
2022-12-18T17:49:12.125Z,97265.34
2022-12-18T17:51:38.964Z,97271.06
2022-12-18T17:54:05.723Z,97267.97
2022-12-18T17:56:33.166Z,97261.91
2022-12-18T17:59:00.158Z,97266.41
2022-12-18T18:01:26.705Z,97261.81
2022-12-18T18:03:56.425Z,97264.00
2022-12-18T18:06:23.856Z,97277.38
2022-12-18T18:08:50.603Z,97287.09
2022-12-18T18:11:58.836Z,97282.50
2022-12-18T18:14:26.907Z,97294.88
2022-12-18T18:16:54.168Z,97287.09
2022-12-18T18:19:24.210Z,97294.13
2022-12-18T18:21:53.150Z,97295.13
2022-12-18T18:24:23.291Z,97298.94
2022-12-18T18:26:50.620Z,97297.59
2022-12-18T18:29:20.843Z,97293.09
2022-12-18T18:31:48.368Z,97288.41
2022-12-18T18:34:18.029Z,97279.72
2022-12-18T18:36:46.549Z,97279.69
2022-12-18T18:39:13.952Z,97281.47
2022-12-18T18:41:40.581Z,97280.72
2022-12-18T18:44:10.652Z,97285.13
2022-12-18T18:46:37.026Z,97281.69
2022-12-18T18:49:03.910Z,97271.91
2022-12-18T18:51:34.857Z,97265.94
2022-12-18T18:54:01.743Z,97263.97
2022-12-18T18:59:15.671Z,97253.78
2022-12-18T19:01:42.645Z,97247.59
2022-12-18T19:04:09.212Z,97244.72
2022-12-18T19:06:35.735Z,97250.84
2022-12-18T19:09:05.206Z,97252.41
2022-12-18T19:11:50.138Z,97242.13
2022-12-18T19:14:17.489Z,97244.59
2022-12-18T19:16:45.384Z,97247.50
2022-12-18T19:19:13.106Z,97235.84
2022-12-18T19:21:40.841Z,97230.25
2022-12-18T19:24:07.694Z,97225.38
2022-12-18T19:26:35.886Z,97219.22
2022-12-18T19:29:08.270Z,97211.34
2022-12-18T19:31:36.895Z,97210.50
2022-12-18T19:34:07.754Z,97217.19
2022-12-18T19:36:36.453Z,97224.91
2022-12-18T19:39:12.707Z,97215.09
2022-12-18T19:41:39.600Z,97211.56
2022-12-18T19:44:08.290Z,97225.28
2022-12-18T19:46:35.493Z,97221.94
2022-12-18T19:49:02.279Z,97222.69
2022-12-18T19:51:30.659Z,97217.13
2022-12-18T19:54:01.430Z,97223.50
2022-12-18T19:56:31.084Z,97228.41
2022-12-18T19:58:57.944Z,97222.66
2022-12-18T20:01:25.835Z,97222.28
2022-12-18T20:03:55.072Z,97225.63
2022-12-18T20:06:32.444Z,97227.28
2022-12-18T20:09:01.822Z,97232.50
2022-12-18T20:11:33.327Z,97238.22
2022-12-18T20:14:03.255Z,97243.44
2022-12-18T20:16:29.835Z,97244.25
2022-12-18T20:18:58.104Z,97247.41
2022-12-18T20:21:25.390Z,97246.09
2022-12-18T20:23:52.058Z,97251.19
2022-12-18T20:26:19.650Z,97245.00
2022-12-18T20:28:46.066Z,97225.91
2022-12-18T20:31:13.685Z,97222.44
2022-12-18T20:33:41.604Z,97202.19
2022-12-18T20:36:13.350Z,97199.03
2022-12-18T20:38:40.873Z,97197.38
2022-12-18T20:41:16.591Z,97210.34
2022-12-18T20:43:44.109Z,97211.91
2022-12-18T20:46:12.952Z,97225.28
2022-12-18T20:48:40.942Z,97230.97
2022-12-18T20:51:18.449Z,97219.47
2022-12-18T20:53:46.241Z,97218.78
2022-12-18T20:56:21.129Z,97215.47
2022-12-18T20:58:49.700Z,97214.94
2022-12-18T21:01:19.205Z,97204.22
2022-12-18T21:03:47.030Z,97202.69
2022-12-18T21:06:15.696Z,97198.44
2022-12-18T21:08:43.177Z,97194.88
2022-12-18T21:11:35.929Z,97194.50
2022-12-18T21:14:04.089Z,97203.84
2022-12-18T21:16:30.798Z,97191.59
2022-12-18T21:18:58.203Z,97191.50
2022-12-18T21:21:26.936Z,97190.03
2022-12-18T21:23:53.810Z,97196.94
2022-12-18T21:26:23.421Z,97190.44
2022-12-18T21:28:55.362Z,97199.09
2022-12-18T21:31:24.215Z,97190.81
2022-12-18T21:33:51.063Z,97186.00
2022-12-18T21:36:22.362Z,97184.31
2022-12-18T21:38:48.772Z,97177.78
2022-12-18T21:41:41.956Z,97194.34
2022-12-18T21:44:12.247Z,97188.75
2022-12-18T21:46:41.079Z,97190.56
2022-12-18T21:49:09.029Z,97188.53
2022-12-18T21:51:36.428Z,97185.84
2022-12-18T21:54:02.825Z,97175.88
2022-12-18T21:56:49.714Z,97166.63
2022-12-18T21:59:25.267Z,97178.03
2022-12-18T22:01:53.185Z,97180.25
2022-12-18T22:04:20.472Z,97177.41
2022-12-18T22:06:48.909Z,97174.06
2022-12-18T22:09:18.238Z,97185.13
2022-12-18T22:11:44.909Z,97170.88
2022-12-18T22:14:12.121Z,97149.47
2022-12-18T22:16:38.478Z,97149.50
2022-12-18T22:19:06.881Z,97157.47
2022-12-18T22:21:35.437Z,97187.09
2022-12-18T22:24:12.544Z,97183.69
2022-12-18T22:26:40.287Z,97201.28
2022-12-18T22:29:26.416Z,97187.66
2022-12-18T22:31:52.765Z,97180.63
2022-12-18T22:34:22.853Z,97169.97
2022-12-18T22:36:51.129Z,97187.34
2022-12-18T22:39:20.468Z,97180.22
2022-12-18T22:41:48.028Z,97186.13
2022-12-18T22:44:15.717Z,97179.38
2022-12-18T22:46:49.415Z,97167.22
2022-12-18T22:49:34.734Z,97175.63
2022-12-18T22:52:02.193Z,97174.19
2022-12-18T22:54:28.545Z,97171.81
2022-12-18T22:56:55.924Z,97158.56
2022-12-18T22:59:23.264Z,97162.31
2022-12-18T23:01:51.290Z,97160.00
2022-12-18T23:04:23.871Z,97145.63
2022-12-18T23:06:52.382Z,97149.28
2022-12-18T23:09:20.271Z,97154.81
2022-12-18T23:11:47.673Z,97140.25
2022-12-18T23:14:14.910Z,97159.84
2022-12-18T23:16:41.264Z,97151.88
2022-12-18T23:19:09.134Z,97141.38
2022-12-18T23:21:35.607Z,97141.75
2022-12-18T23:24:02.022Z,97139.63
2022-12-18T23:26:28.979Z,97142.81
2022-12-18T23:28:56.681Z,97137.88
2022-12-18T23:31:27.210Z,97131.03
2022-12-18T23:33:56.713Z,97131.97
2022-12-18T23:36:24.022Z,97135.06
2022-12-18T23:38:55.302Z,97135.81
2022-12-18T23:41:25.151Z,97134.06
2022-12-18T23:43:52.392Z,97124.44
2022-12-18T23:46:27.799Z,97116.31
2022-12-18T23:49:01.121Z,97105.81
2022-12-18T23:51:29.171Z,97124.19
2022-12-18T23:53:58.085Z,97123.22
2022-12-18T23:56:25.590Z,97125.63
2022-12-18T23:58:53.019Z,97119.34
